Emmanuel — WDE6384 — position and weather

sailwx.info

Track history (hours):
 
Tides and Currents Weather Stations Pressure Air Temp Water Temp Dewpoint Dewpoint Depression Visibility Wind Speed Wind Dir Waves Ship Positions

Emmanuel

Owner: Marquette Transportation Company Gulf-Inland, LLC, Jefferson, LA. More information available from US FCC via Universal Licensing System and Coast Guard Vessel Documentation Center.

Last reported at 2018-Jun-19 16:01 UTC. Time now 2018-Jun-19 20:23 UTC.
Position N 29°51' W 091°55'.

Length 205 m; draft 2.9 m.

Type: Towing. MMSI: 367379540.

Date/timePositionNaut miles runAvg speedWind from/ knotsBaromVisibWave heightAir tempDewpointWater temp
2018-Jun-19 16:01N 29°51' W 091°55'0 6.1
2018-Jun-19 16:00N 29°51' W 091°55'3 5.9
2018-Jun-19 15:30N 29°50' W 091°58'3 6.0
2018-Jun-19 15:00N 29°49' W 092°01'3 5.8
2018-Jun-19 14:30N 29°48' W 092°04'3 5.8
2018-Jun-19 14:00N 29°47' W 092°08'3 5.6
2018-Jun-19 13:30N 29°47' W 092°11'0 0.4
2018-Jun-19 13:00N 29°47' W 092°11'0 0.0
2018-Jun-19 12:30N 29°47' W 092°11'0 0.0
2018-Jun-19 12:00N 29°47' W 092°11'0 1.0
2018-Jun-19 11:30N 29°47' W 092°10'0 0.5
2018-Jun-19 11:00N 29°47' W 092°10'0 0.1
2018-Jun-19 10:30N 29°47' W 092°10'0 0.4
2018-Jun-19 10:00N 29°47' W 092°10'0 0.0
2018-Jun-19 09:30N 29°47' W 092°10'0 0.4
2018-Jun-19 09:00N 29°47' W 092°10'3 5.2
2018-Jun-19 08:30N 29°48' W 092°07'3 6.2
2018-Jun-19 08:00N 29°49' W 092°04'3 5.6
2018-Jun-19 07:30N 29°50' W 092°01'56 4.4
2018-Jun-18 18:59N 29°36' W 090°58'3 5.5
2018-Jun-18 18:30N 29°34' W 090°56'3 5.9
2018-Jun-18 17:57N 29°32' W 090°53'3 6.0
2018-Jun-18 17:30N 29°32' W 090°50'3 6.1
2018-Jun-18 17:00N 29°32' W 090°46'3 5.3
2018-Jun-18 16:30N 29°34' W 090°44'1 1.2
2018-Jun-18 16:00N 29°34' W 090°43'2 4.8
2018-Jun-18 15:30N 29°36' W 090°43'1 1.8
2018-Jun-18 15:00N 29°37' W 090°42'1 1.7
2018-Jun-18 14:30N 29°36' W 090°41'2 3.6
2018-Jun-18 14:00N 29°36' W 090°39'0 0.0
2018-Jun-18 13:30N 29°36' W 090°39'0 0.0
2018-Jun-18 13:00N 29°36' W 090°39'0 0.0
2018-Jun-18 12:30N 29°36' W 090°39'0 0.0
2018-Jun-18 11:59N 29°36' W 090°39'0 0.0
2018-Jun-18 11:30N 29°36' W 090°39'0 0.0
2018-Jun-18 11:00N 29°36' W 090°39'0 0.0
2018-Jun-18 10:29N 29°36' W 090°39'0 0.0
2018-Jun-18 10:00N 29°36' W 090°39'0 0.0
2018-Jun-18 09:30N 29°36' W 090°39'0 0.0
2018-Jun-18 09:00N 29°36' W 090°39'0 0.0
2018-Jun-18 08:30N 29°36' W 090°39'0 0.0
2018-Jun-18 08:00N 29°36' W 090°39'0 0.0
2018-Jun-18 07:30N 29°36' W 090°39'0 0.0
2018-Jun-18 07:00N 29°36' W 090°39'0 0.0
2018-Jun-18 06:30N 29°36' W 090°39'0 0.0
2018-Jun-18 06:00N 29°36' W 090°39'0 0.0
2018-Jun-18 05:30N 29°36' W 090°39'0 0.0
2018-Jun-18 05:00N 29°36' W 090°39'0 0.0
2018-Jun-18 04:30N 29°36' W 090°39'0 0.0
2018-Jun-18 04:00N 29°36' W 090°39'0 0.0
2018-Jun-18 03:30N 29°36' W 090°39'0 0.0
2018-Jun-18 03:00N 29°36' W 090°39'0 0.0
2018-Jun-18 02:30N 29°36' W 090°39'0 0.0
2018-Jun-18 02:00N 29°36' W 090°39'0 0.0
2018-Jun-18 01:30N 29°36' W 090°39'0 0.0
2018-Jun-18 00:59N 29°36' W 090°39'0 0.0
2018-Jun-18 00:30N 29°36' W 090°39'0 0.0
2018-Jun-18 00:00N 29°36' W 090°39'0 0.0
2018-Jun-17 23:30N 29°36' W 090°39'0 0.0
2018-Jun-17 23:00N 29°36' W 090°39'0 0.0
2018-Jun-17 22:30N 29°36' W 090°39'0 0.0
2018-Jun-17 22:00N 29°36' W 090°39'0 0.0
2018-Jun-17 21:30N 29°36' W 090°39'0 0.0
2018-Jun-17 21:00N 29°36' W 090°39'0 0.0
2018-Jun-17 20:30N 29°36' W 090°39'0 0.0
2018-Jun-17 20:00N 29°36' W 090°39'0 0.0
2018-Jun-17 19:30N 29°36' W 090°39'0 0.0
2018-Jun-17 19:00N 29°36' W 090°39'0 0.0
2018-Jun-17 18:30N 29°36' W 090°39'0 0.0
2018-Jun-17 18:00N 29°36' W 090°39'0 0.0
2018-Jun-17 17:30N 29°36' W 090°39'0 0.0
2018-Jun-17 17:00N 29°36' W 090°39'0 0.0
2018-Jun-17 16:30N 29°36' W 090°39'0 0.0
2018-Jun-17 16:00N 29°36' W 090°39'0 0.0
2018-Jun-17 15:30N 29°36' W 090°39'0 0.0
2018-Jun-17 15:00N 29°36' W 090°39'0 0.0
2018-Jun-17 14:30N 29°36' W 090°39'0 0.0
2018-Jun-17 14:00N 29°36' W 090°39'0 0.0
2018-Jun-17 13:30N 29°36' W 090°39'0 0.5
2018-Jun-17 13:00N 29°36' W 090°39'2 5.0
2018-Jun-17 12:30N 29°35' W 090°36'3 5.1
2018-Jun-17 12:00N 29°34' W 090°33'3 5.3
2018-Jun-17 11:30N 29°34' W 090°30'  
Track history (hours):
 
Tides and Currents Weather Stations Pressure Air Temp Water Temp Dewpoint Dewpoint Depression Visibility Wind Speed Wind Dir Waves Ship Positions

Emmanuel

Owner: Marquette Transportation Company Gulf-Inland, LLC, Jefferson, LA. More information available from US FCC via Universal Licensing System and Coast Guard Vessel Documentation Center.

Last reported at 2018-Jun-19 16:01 UTC. Time now 2018-Jun-19 20:23 UTC.
Position N 29°51' W 091°55'.

Length 205 m; draft 2.9 m.

Type: Towing. MMSI: 367379540.

Date/timePositionNaut miles runAvg speedWind from/ knotsBaromVisibWave heightAir tempDewpointWater temp
2018-Jun-19 16:01N 29°51' W 091°55'0 6.1
2018-Jun-19 16:00N 29°51' W 091°55'3 5.9
2018-Jun-19 15:30N 29°50' W 091°58'3 6.0
2018-Jun-19 15:00N 29°49' W 092°01'3 5.8
2018-Jun-19 14:30N 29°48' W 092°04'3 5.8
2018-Jun-19 14:00N 29°47' W 092°08'3 5.6
2018-Jun-19 13:30N 29°47' W 092°11'0 0.4
2018-Jun-19 13:00N 29°47' W 092°11'0 0.0
2018-Jun-19 12:30N 29°47' W 092°11'0 0.0
2018-Jun-19 12:00N 29°47' W 092°11'0 1.0
2018-Jun-19 11:30N 29°47' W 092°10'0 0.5
2018-Jun-19 11:00N 29°47' W 092°10'0 0.1
2018-Jun-19 10:30N 29°47' W 092°10'0 0.4
2018-Jun-19 10:00N 29°47' W 092°10'0 0.0
2018-Jun-19 09:30N 29°47' W 092°10'0 0.4
2018-Jun-19 09:00N 29°47' W 092°10'3 5.2
2018-Jun-19 08:30N 29°48' W 092°07'3 6.2
2018-Jun-19 08:00N 29°49' W 092°04'3 5.6
2018-Jun-19 07:30N 29°50' W 092°01'56 4.4
2018-Jun-18 18:59N 29°36' W 090°58'3 5.5
2018-Jun-18 18:30N 29°34' W 090°56'3 5.9
2018-Jun-18 17:57N 29°32' W 090°53'3 6.0
2018-Jun-18 17:30N 29°32' W 090°50'3 6.1
2018-Jun-18 17:00N 29°32' W 090°46'3 5.3
2018-Jun-18 16:30N 29°34' W 090°44'1 1.2
2018-Jun-18 16:00N 29°34' W 090°43'2 4.8
2018-Jun-18 15:30N 29°36' W 090°43'1 1.8
2018-Jun-18 15:00N 29°37' W 090°42'1 1.7
2018-Jun-18 14:30N 29°36' W 090°41'2 3.6
2018-Jun-18 14:00N 29°36' W 090°39'0 0.0
2018-Jun-18 13:30N 29°36' W 090°39'0 0.0
2018-Jun-18 13:00N 29°36' W 090°39'0 0.0
2018-Jun-18 12:30N 29°36' W 090°39'0 0.0
2018-Jun-18 11:59N 29°36' W 090°39'0 0.0
2018-Jun-18 11:30N 29°36' W 090°39'0 0.0
2018-Jun-18 11:00N 29°36' W 090°39'0 0.0
2018-Jun-18 10:29N 29°36' W 090°39'0 0.0
2018-Jun-18 10:00N 29°36' W 090°39'0 0.0
2018-Jun-18 09:30N 29°36' W 090°39'0 0.0
2018-Jun-18 09:00N 29°36' W 090°39'0 0.0
2018-Jun-18 08:30N 29°36' W 090°39'0 0.0
2018-Jun-18 08:00N 29°36' W 090°39'0 0.0
2018-Jun-18 07:30N 29°36' W 090°39'0 0.0
2018-Jun-18 07:00N 29°36' W 090°39'0 0.0
2018-Jun-18 06:30N 29°36' W 090°39'0 0.0
2018-Jun-18 06:00N 29°36' W 090°39'0 0.0
2018-Jun-18 05:30N 29°36' W 090°39'0 0.0
2018-Jun-18 05:00N 29°36' W 090°39'0 0.0
2018-Jun-18 04:30N 29°36' W 090°39'0 0.0
2018-Jun-18 04:00N 29°36' W 090°39'0 0.0
2018-Jun-18 03:30N 29°36' W 090°39'0 0.0
2018-Jun-18 03:00N 29°36' W 090°39'0 0.0
2018-Jun-18 02:30N 29°36' W 090°39'0 0.0
2018-Jun-18 02:00N 29°36' W 090°39'0 0.0
2018-Jun-18 01:30N 29°36' W 090°39'0 0.0
2018-Jun-18 00:59N 29°36' W 090°39'0 0.0
2018-Jun-18 00:30N 29°36' W 090°39'0 0.0
2018-Jun-18 00:00N 29°36' W 090°39'0 0.0
2018-Jun-17 23:30N 29°36' W 090°39'0 0.0
2018-Jun-17 23:00N 29°36' W 090°39'0 0.0
2018-Jun-17 22:30N 29°36' W 090°39'0 0.0
2018-Jun-17 22:00N 29°36' W 090°39'0 0.0
2018-Jun-17 21:30N 29°36' W 090°39'0 0.0
2018-Jun-17 21:00N 29°36' W 090°39'0 0.0
2018-Jun-17 20:30N 29°36' W 090°39'0 0.0
2018-Jun-17 20:00N 29°36' W 090°39'0 0.0
2018-Jun-17 19:30N 29°36' W 090°39'0 0.0
2018-Jun-17 19:00N 29°36' W 090°39'0 0.0
2018-Jun-17 18:30N 29°36' W 090°39'0 0.0
2018-Jun-17 18:00N 29°36' W 090°39'0 0.0
2018-Jun-17 17:30N 29°36' W 090°39'0 0.0
2018-Jun-17 17:00N 29°36' W 090°39'0 0.0
2018-Jun-17 16:30N 29°36' W 090°39'0 0.0
2018-Jun-17 16:00N 29°36' W 090°39'0 0.0
2018-Jun-17 15:30N 29°36' W 090°39'0 0.0
2018-Jun-17 15:00N 29°36' W 090°39'0 0.0
2018-Jun-17 14:30N 29°36' W 090°39'0 0.0
2018-Jun-17 14:00N 29°36' W 090°39'0 0.0
2018-Jun-17 13:30N 29°36' W 090°39'0 0.5
2018-Jun-17 13:00N 29°36' W 090°39'2 5.0
2018-Jun-17 12:30N 29°35' W 090°36'3 5.1
2018-Jun-17 12:00N 29°34' W 090°33'3 5.3
2018-Jun-17 11:30N 29°34' W 090°30'  

Dump ship's entire track history